createdAt,value
2022-08-26T00:00:52.067Z,98795.97
2022-08-26T00:03:20.846Z,98801.25
2022-08-26T00:05:51.008Z,98795.84
2022-08-26T00:08:21.519Z,98775.53
2022-08-26T00:10:49.881Z,98773.97
2022-08-26T00:13:19.726Z,98774.78
2022-08-26T00:15:48.055Z,98767.22
2022-08-26T00:18:21.961Z,98778.97
2022-08-26T00:20:51.575Z,98780.81
2022-08-26T00:23:20.495Z,98782.03
2022-08-26T00:25:52.919Z,98789.53
2022-08-26T00:28:23.908Z,98801.97
2022-08-26T00:30:52.483Z,98788.53
2022-08-26T00:33:22.200Z,98785.94
2022-08-26T00:35:50.548Z,98790.75
2022-08-26T00:38:22.861Z,98783.03
2022-08-26T00:40:53.753Z,98781.34
2022-08-26T00:43:25.637Z,98788.59
2022-08-26T00:45:58.840Z,98783.50
2022-08-26T00:48:31.719Z,98787.50
2022-08-26T00:51:03.721Z,98774.84
2022-08-26T00:53:37.777Z,98777.31
2022-08-26T00:56:17.991Z,98780.84
2022-08-26T00:58:48.637Z,98777.00
2022-08-26T01:01:18.299Z,98780.09
2022-08-26T01:03:51.488Z,98788.09
2022-08-26T01:06:20.997Z,98784.25
2022-08-26T01:08:49.396Z,98781.34
2022-08-26T01:11:17.733Z,98779.56
2022-08-26T01:13:48.755Z,98780.50
2022-08-26T01:16:18.034Z,98778.53
2022-08-26T01:18:46.915Z,98782.06
2022-08-26T01:21:22.964Z,98781.72
2022-08-26T01:23:57.446Z,98787.06
2022-08-26T01:26:30.981Z,98778.78
2022-08-26T01:29:03.954Z,98771.25
2022-08-26T01:31:38.611Z,98763.09
2022-08-26T01:34:12.129Z,98760.59
2022-08-26T01:36:41.661Z,98761.88
2022-08-26T01:39:11.773Z,98762.22
2022-08-26T01:41:44.063Z,98755.44
2022-08-26T01:44:19.334Z,98760.69
2022-08-26T01:46:50.723Z,98766.38
2022-08-26T01:49:20.542Z,98762.38
2022-08-26T01:51:50.815Z,98753.94
2022-08-26T01:54:20.671Z,98757.50
2022-08-26T01:56:55.275Z,98753.31
2022-08-26T01:59:25.679Z,98770.69
2022-08-26T02:01:55.282Z,98765.50
2022-08-26T02:04:27.252Z,98772.88
2022-08-26T02:06:56.999Z,98775.78
2022-08-26T02:09:28.713Z,98770.56
2022-08-26T02:12:01.898Z,98773.19
2022-08-26T02:14:35.942Z,98770.25
2022-08-26T02:17:13.472Z,98769.66
2022-08-26T02:19:47.096Z,98782.28
2022-08-26T02:22:19.240Z,98787.50
2022-08-26T02:24:50.861Z,98779.50
2022-08-26T02:27:21.088Z,98770.56
2022-08-26T02:29:52.642Z,98772.44
2022-08-26T02:32:20.864Z,98768.09
2022-08-26T02:34:49.423Z,98767.34
2022-08-26T02:37:17.818Z,98765.19
2022-08-26T02:39:50.460Z,98761.19
2022-08-26T02:42:20.369Z,98756.28
2022-08-26T02:44:48.888Z,98760.41
2022-08-26T02:47:18.182Z,98752.41
2022-08-26T02:49:47.584Z,98750.44
2022-08-26T02:52:16.601Z,98755.66
2022-08-26T02:54:45.476Z,98745.66
2022-08-26T02:57:15.284Z,98749.81
2022-08-26T02:59:43.564Z,98757.78
2022-08-26T03:02:13.024Z,98762.88
2022-08-26T03:04:57.338Z,98762.13
2022-08-26T03:07:30.894Z,98758.44
2022-08-26T03:09:59.598Z,98756.28
2022-08-26T03:12:29.287Z,98761.50
2022-08-26T03:14:58.021Z,98758.88
2022-08-26T03:17:26.898Z,98749.94
2022-08-26T03:19:57.240Z,98766.72
2022-08-26T03:22:27.233Z,98764.56
2022-08-26T03:24:55.931Z,98767.63
2022-08-26T03:27:24.230Z,98758.88
2022-08-26T03:30:11.644Z,98770.41
2022-08-26T03:32:41.547Z,98767.59
2022-08-26T03:35:10.268Z,98771.03
2022-08-26T03:37:38.787Z,98774.41
2022-08-26T03:40:10.532Z,98766.75
2022-08-26T03:42:39.441Z,98767.94
2022-08-26T03:45:11.406Z,98767.19
2022-08-26T03:47:41.120Z,98775.03
2022-08-26T03:50:12.052Z,98773.31
2022-08-26T03:52:43.917Z,98776.69
2022-08-26T03:55:13.417Z,98779.75
2022-08-26T03:57:42.369Z,98773.75
2022-08-26T04:00:18.529Z,98765.63
2022-08-26T04:02:51.267Z,98768.88
2022-08-26T04:05:23.095Z,98766.72
2022-08-26T04:07:51.721Z,98761.34
2022-08-26T04:10:28.726Z,98763.03
2022-08-26T04:12:59.407Z,98759.34
2022-08-26T04:15:29.848Z,98764.59
2022-08-26T04:17:58.351Z,98762.75
2022-08-26T04:20:26.790Z,98761.94
2022-08-26T04:22:55.062Z,98765.34
2022-08-26T04:25:24.159Z,98768.56
2022-08-26T04:27:53.004Z,98771.03
2022-08-26T04:30:21.335Z,98775.97
2022-08-26T04:32:51.259Z,98769.19
2022-08-26T04:35:23.892Z,98775.81
2022-08-26T04:37:54.316Z,98771.19
2022-08-26T04:40:22.733Z,98775.97
2022-08-26T04:42:51.597Z,98771.06
2022-08-26T04:45:22.775Z,98773.97
2022-08-26T04:47:56.490Z,98762.75
2022-08-26T04:50:26.566Z,98762.41
2022-08-26T04:52:56.319Z,98763.03
2022-08-26T04:55:38.585Z,98776.22
2022-08-26T04:58:12.168Z,98773.91
2022-08-26T05:00:40.445Z,98770.66
2022-08-26T05:03:10.569Z,98775.09
2022-08-26T05:05:41.370Z,98781.97
2022-08-26T05:08:11.237Z,98784.50
2022-08-26T05:10:43.751Z,98780.53
2022-08-26T05:13:15.141Z,98780.69
2022-08-26T05:15:45.285Z,98788.53
2022-08-26T05:18:16.743Z,98789.34
2022-08-26T05:20:48.394Z,98787.47
2022-08-26T05:23:18.384Z,98789.56
2022-08-26T05:25:49.027Z,98792.47
2022-08-26T05:28:18.866Z,98802.13
2022-08-26T05:30:47.534Z,98801.50
2022-08-26T05:33:17.692Z,98803.75
2022-08-26T05:35:47.411Z,98800.50
2022-08-26T05:38:18.015Z,98798.78
2022-08-26T05:40:49.109Z,98797.66
2022-08-26T05:43:22.725Z,98806.69
2022-08-26T05:45:52.216Z,98810.25
2022-08-26T05:48:24.390Z,98812.53
2022-08-26T05:50:54.563Z,98809.97
2022-08-26T05:53:23.927Z,98812.25
2022-08-26T05:55:56.420Z,98818.38
2022-08-26T05:58:27.316Z,98818.28
2022-08-26T06:01:06.964Z,98830.75
2022-08-26T06:03:39.653Z,98826.38
2022-08-26T06:06:11.281Z,98834.91
2022-08-26T06:08:40.314Z,98825.13
2022-08-26T06:11:18.327Z,98827.97
2022-08-26T06:13:47.484Z,98821.84
2022-08-26T06:16:19.620Z,98825.19
2022-08-26T06:18:50.733Z,98824.91
2022-08-26T06:21:21.246Z,98835.09
2022-08-26T06:24:09.441Z,98838.09
2022-08-26T06:26:38.188Z,98834.41
2022-08-26T06:29:07.767Z,98841.69
2022-08-26T06:31:37.783Z,98832.13
2022-08-26T06:34:10.926Z,98846.66
2022-08-26T06:36:40.669Z,98853.47
2022-08-26T06:39:14.262Z,98857.44
2022-08-26T06:41:44.777Z,98859.47
2022-08-26T06:44:15.443Z,98867.31
2022-08-26T06:46:44.562Z,98872.53
2022-08-26T06:49:14.383Z,98865.50
2022-08-26T06:51:45.926Z,98858.63
2022-08-26T06:54:17.215Z,98867.25
2022-08-26T06:56:45.707Z,98873.28
2022-08-26T06:59:16.139Z,98862.16
2022-08-26T07:01:45.869Z,98871.56
2022-08-26T07:04:22.153Z,98866.00
2022-08-26T07:06:53.593Z,98868.69
2022-08-26T07:09:23.871Z,98872.53
2022-08-26T07:11:53.198Z,98873.09
2022-08-26T07:14:22.062Z,98873.72
2022-08-26T07:16:50.588Z,98863.06
2022-08-26T07:19:30.146Z,98869.53
2022-08-26T07:21:59.096Z,98871.84
2022-08-26T07:24:28.525Z,98879.16
2022-08-26T07:27:00.829Z,98875.28
2022-08-26T07:29:30.040Z,98880.94
2022-08-26T07:31:59.700Z,98879.63
2022-08-26T07:34:29.991Z,98880.91
2022-08-26T07:36:58.837Z,98883.53
2022-08-26T07:39:27.994Z,98886.66
2022-08-26T07:41:56.271Z,98882.91
2022-08-26T07:44:27.266Z,98878.81
2022-08-26T07:46:55.651Z,98872.94
2022-08-26T07:49:26.965Z,98876.31
2022-08-26T07:51:58.232Z,98875.28
2022-08-26T07:54:27.324Z,98881.50
2022-08-26T07:56:56.158Z,98881.38
2022-08-26T07:59:25.013Z,98876.84
2022-08-26T08:01:53.933Z,98871.50
2022-08-26T08:04:26.412Z,98874.06
2022-08-26T08:06:55.957Z,98873.31
2022-08-26T08:09:26.061Z,98872.31
2022-08-26T08:11:55.698Z,98868.13
2022-08-26T08:14:24.104Z,98873.78
2022-08-26T08:16:54.966Z,98875.88
2022-08-26T08:19:23.912Z,98880.72
2022-08-26T08:21:56.635Z,98881.59
2022-08-26T08:24:26.343Z,98877.53
2022-08-26T08:26:54.488Z,98868.28
2022-08-26T08:29:25.078Z,98881.28
2022-08-26T08:31:56.819Z,98888.53
2022-08-26T08:34:28.172Z,98883.75
2022-08-26T08:36:57.205Z,98878.72
2022-08-26T08:39:27.596Z,98881.50
2022-08-26T08:42:16.223Z,98882.06
2022-08-26T08:44:52.037Z,98877.31
2022-08-26T08:47:29.179Z,98882.06
2022-08-26T08:50:01.297Z,98876.91
2022-08-26T08:52:33.964Z,98871.09
2022-08-26T08:55:04.454Z,98872.53
2022-08-26T08:57:53.777Z,98870.19
2022-08-26T09:00:30.377Z,98867.88
2022-08-26T09:03:04.334Z,98872.69
2022-08-26T09:05:42.583Z,98875.00
2022-08-26T09:08:19.735Z,98870.38
2022-08-26T09:10:54.429Z,98873.28
2022-08-26T09:13:25.117Z,98874.00
2022-08-26T09:16:04.637Z,98871.50
2022-08-26T09:18:48.833Z,98879.97
2022-08-26T09:21:19.384Z,98874.34
2022-08-26T09:23:49.656Z,98869.78
2022-08-26T09:26:25.869Z,98867.75
2022-08-26T09:28:59.073Z,98871.59
2022-08-26T09:31:29.502Z,98871.31
2022-08-26T09:34:09.513Z,98874.53
2022-08-26T09:36:41.459Z,98878.44
2022-08-26T09:39:30.782Z,98869.91
2022-08-26T09:42:12.958Z,98867.66
2022-08-26T09:45:06.197Z,98868.59
2022-08-26T09:47:39.194Z,98873.19
2022-08-26T09:50:20.304Z,98870.41
2022-08-26T09:52:48.909Z,98872.50
2022-08-26T09:55:24.123Z,98872.25
2022-08-26T09:57:55.277Z,98875.78
2022-08-26T10:00:30.771Z,98876.09
2022-08-26T10:03:01.855Z,98880.91
2022-08-26T10:05:36.183Z,98872.25
2022-08-26T10:08:23.229Z,98883.13
2022-08-26T10:10:53.851Z,98887.41
2022-08-26T10:13:31.595Z,98881.66
2022-08-26T10:16:17.918Z,98880.91
2022-08-26T10:18:56.765Z,98878.56
2022-08-26T10:21:33.700Z,98879.41
2022-08-26T10:24:04.952Z,98878.44
2022-08-26T10:26:42.599Z,98881.75
2022-08-26T10:29:17.233Z,98881.22
2022-08-26T10:31:51.998Z,98884.81
2022-08-26T10:34:21.094Z,98887.84
2022-08-26T10:37:14.271Z,98882.50
2022-08-26T10:39:56.940Z,98894.19
2022-08-26T10:42:33.642Z,98913.13
2022-08-26T10:45:11.733Z,98897.34
2022-08-26T10:47:49.568Z,98898.16
2022-08-26T10:50:19.019Z,98909.34
2022-08-26T10:53:02.064Z,98907.66
2022-08-26T10:55:38.910Z,98900.94
2022-08-26T10:58:26.241Z,98897.28
2022-08-26T11:01:22.846Z,98895.81
2022-08-26T11:04:01.516Z,98890.38
2022-08-26T11:06:31.519Z,98887.34
2022-08-26T11:09:02.338Z,98887.78
2022-08-26T11:11:51.219Z,98895.03
2022-08-26T11:14:53.507Z,98883.94
2022-08-26T11:17:57.673Z,98887.63
2022-08-26T11:20:41.560Z,98885.56
2022-08-26T11:23:50.274Z,98877.50
2022-08-26T11:26:27.524Z,98866.03
2022-08-26T11:29:13.490Z,98869.63
2022-08-26T11:31:59.016Z,98863.75
2022-08-26T11:34:56.260Z,98863.09
2022-08-26T11:37:32.288Z,98881.38
2022-08-26T11:40:03.982Z,98872.72
2022-08-26T11:42:41.582Z,98873.19
2022-08-26T11:45:20.605Z,98864.28
2022-08-26T11:47:49.424Z,98869.72
2022-08-26T11:50:24.015Z,98870.59
2022-08-26T11:53:01.764Z,98863.34
2022-08-26T11:55:31.053Z,98869.22
2022-08-26T11:58:02.214Z,98860.28
2022-08-26T12:00:45.583Z,98862.91
2022-08-26T12:03:21.101Z,98850.66
2022-08-26T12:05:54.516Z,98843.28
2022-08-26T12:08:27.957Z,98841.09
2022-08-26T12:11:05.503Z,98831.31
2022-08-26T12:13:35.932Z,98823.72
2022-08-26T12:16:07.731Z,98815.38
2022-08-26T12:18:39.020Z,98818.16
2022-08-26T12:21:17.524Z,98830.19
2022-08-26T12:23:50.104Z,98820.03
2022-08-26T12:26:25.260Z,98816.69
2022-08-26T12:28:57.496Z,98826.44
2022-08-26T12:31:31.307Z,98823.88
2022-08-26T12:34:01.682Z,98816.53
2022-08-26T12:36:35.200Z,98815.75
2022-08-26T12:39:08.910Z,98815.50
2022-08-26T12:41:46.518Z,98812.97
2022-08-26T12:44:53.138Z,98811.72
2022-08-26T12:47:41.905Z,98808.91
2022-08-26T12:50:19.315Z,98805.31
2022-08-26T12:52:59.347Z,98800.25
2022-08-26T12:55:37.497Z,98800.47
2022-08-26T12:58:20.768Z,98789.69
2022-08-26T13:00:49.739Z,98791.97
2022-08-26T13:03:38.331Z,98787.44
2022-08-26T13:06:16.060Z,98793.78
2022-08-26T13:08:47.698Z,98786.91
2022-08-26T13:11:20.851Z,98787.94
2022-08-26T13:13:51.952Z,98786.88
2022-08-26T13:16:22.487Z,98791.72
2022-08-26T13:18:53.721Z,98788.72
2022-08-26T13:21:24.783Z,98780.81
2022-08-26T13:23:54.492Z,98786.38
2022-08-26T13:26:23.414Z,98782.25
2022-08-26T13:29:01.434Z,98785.53
2022-08-26T13:31:32.765Z,98780.47
2022-08-26T13:34:01.790Z,98782.31
2022-08-26T13:36:30.013Z,98781.34
2022-08-26T13:38:59.610Z,98781.88
2022-08-26T13:41:29.221Z,98785.66
2022-08-26T13:43:58.818Z,98780.75
2022-08-26T13:46:28.493Z,98775.16
2022-08-26T13:48:56.917Z,98778.97
2022-08-26T13:51:26.980Z,98773.72
2022-08-26T13:53:55.795Z,98778.88
2022-08-26T13:56:27.546Z,98771.25
2022-08-26T13:58:56.438Z,98776.56
2022-08-26T14:01:25.798Z,98769.69
2022-08-26T14:03:54.161Z,98772.00
2022-08-26T14:06:23.011Z,98775.81
2022-08-26T14:08:51.281Z,98777.88
2022-08-26T14:11:19.570Z,98774.03
2022-08-26T14:13:49.313Z,98779.56
2022-08-26T14:16:25.524Z,98778.81
2022-08-26T14:18:54.297Z,98779.34
2022-08-26T14:21:22.645Z,98772.00
2022-08-26T14:23:50.926Z,98778.34
2022-08-26T14:26:28.117Z,98772.00
2022-08-26T14:28:59.827Z,98766.13
2022-08-26T14:31:29.544Z,98775.75
2022-08-26T14:33:59.605Z,98780.66
2022-08-26T14:36:32.382Z,98780.41
2022-08-26T14:39:03.297Z,98776.09
2022-08-26T14:41:33.536Z,98781.16
2022-08-26T14:44:05.997Z,98787.50
2022-08-26T14:46:40.637Z,98781.16
2022-08-26T14:49:10.720Z,98774.28
2022-08-26T14:51:42.118Z,98773.22
2022-08-26T14:54:14.184Z,98771.22
2022-08-26T14:56:47.218Z,98769.63
2022-08-26T14:59:20.377Z,98770.63
2022-08-26T15:01:48.885Z,98768.84
2022-08-26T15:04:17.367Z,98771.88
2022-08-26T15:06:46.285Z,98770.88
2022-08-26T15:09:14.852Z,98768.81
2022-08-26T15:11:43.398Z,98768.88
2022-08-26T15:14:14.698Z,98773.19
2022-08-26T15:16:49.741Z,98765.38
2022-08-26T15:19:18.540Z,98771.94
2022-08-26T15:21:47.594Z,98762.84
2022-08-26T15:24:20.154Z,98769.69
2022-08-26T15:26:50.687Z,98771.47
2022-08-26T15:29:19.464Z,98770.50
2022-08-26T15:31:49.218Z,98763.63
2022-08-26T15:34:17.471Z,98758.78
2022-08-26T15:36:46.903Z,98763.13
2022-08-26T15:39:16.367Z,98756.50
2022-08-26T15:41:44.784Z,98751.91
2022-08-26T15:44:14.186Z,98752.16
2022-08-26T15:46:43.080Z,98750.81
2022-08-26T15:49:18.245Z,98757.69
2022-08-26T15:51:50.457Z,98755.44
2022-08-26T15:54:21.157Z,98749.78
2022-08-26T15:56:52.521Z,98755.13
2022-08-26T15:59:22.210Z,98755.31
2022-08-26T16:01:51.378Z,98754.06
2022-08-26T16:04:21.478Z,98757.50
2022-08-26T16:06:52.245Z,98756.47
2022-08-26T16:09:23.542Z,98755.66
2022-08-26T16:11:52.398Z,98761.16
2022-08-26T16:14:20.739Z,98756.81
2022-08-26T16:16:49.313Z,98761.31
2022-08-26T16:19:18.297Z,98764.69
2022-08-26T16:21:48.104Z,98766.94
2022-08-26T16:24:16.263Z,98766.03
2022-08-26T16:26:45.477Z,98765.13
2022-08-26T16:29:15.659Z,98766.00
2022-08-26T16:31:43.919Z,98764.66
2022-08-26T16:34:12.655Z,98774.78
2022-08-26T16:36:41.330Z,98767.75
2022-08-26T16:39:11.319Z,98770.47
2022-08-26T16:41:39.918Z,98779.53
2022-08-26T16:44:09.034Z,98774.84
2022-08-26T16:46:37.733Z,98768.31
2022-08-26T16:49:05.951Z,98769.78
2022-08-26T16:51:38.355Z,98769.03
2022-08-26T16:54:08.566Z,98780.16
2022-08-26T16:56:38.591Z,98776.34
2022-08-26T16:59:09.620Z,98775.69
2022-08-26T17:01:38.410Z,98780.09
2022-08-26T17:04:06.580Z,98781.69
2022-08-26T17:06:35.547Z,98783.03
2022-08-26T17:09:03.945Z,98776.22
2022-08-26T17:11:32.666Z,98775.97
2022-08-26T17:14:03.158Z,98782.47
2022-08-26T17:16:31.570Z,98787.63
2022-08-26T17:19:00.865Z,98783.84
2022-08-26T17:21:29.477Z,98788.09
2022-08-26T17:23:57.747Z,98782.03
2022-08-26T17:26:26.256Z,98795.19
2022-08-26T17:28:54.806Z,98796.38
2022-08-26T17:31:25.188Z,98808.47
2022-08-26T17:33:54.555Z,98802.00
2022-08-26T17:36:27.474Z,98810.00
2022-08-26T17:38:57.630Z,98812.59
2022-08-26T17:41:26.491Z,98810.91
2022-08-26T17:43:54.660Z,98817.81
2022-08-26T17:46:24.528Z,98825.25
2022-08-26T17:48:53.016Z,98820.22
2022-08-26T17:51:23.034Z,98821.50
2022-08-26T17:53:52.677Z,98826.66
2022-08-26T17:56:25.625Z,98825.53
2022-08-26T17:58:54.882Z,98825.81
2022-08-26T18:01:27.684Z,98829.47
2022-08-26T18:04:00.266Z,98829.47
2022-08-26T18:06:30.405Z,98829.28
2022-08-26T18:08:58.939Z,98829.06
2022-08-26T18:11:27.207Z,98826.88
2022-08-26T18:13:55.409Z,98833.72
2022-08-26T18:16:23.770Z,98829.41
2022-08-26T18:18:53.994Z,98821.56
2022-08-26T18:21:25.900Z,98831.91
2022-08-26T18:23:54.848Z,98823.28
2022-08-26T18:26:27.783Z,98827.00
2022-08-26T18:28:56.409Z,98829.00
2022-08-26T18:31:25.135Z,98828.72
2022-08-26T18:33:55.272Z,98832.44
2022-08-26T18:36:26.010Z,98832.44
2022-08-26T18:38:55.369Z,98827.19
2022-08-26T18:41:26.405Z,98826.44
2022-08-26T18:43:55.874Z,98831.81
2022-08-26T18:46:26.394Z,98823.03
2022-08-26T18:48:57.635Z,98833.50
2022-08-26T18:51:29.655Z,98826.50
2022-08-26T18:53:58.543Z,98835.59
2022-08-26T18:56:27.342Z,98829.84
2022-08-26T18:58:55.589Z,98830.22
2022-08-26T19:01:27.429Z,98831.94
2022-08-26T19:03:57.388Z,98835.94
2022-08-26T19:06:27.522Z,98829.91
2022-08-26T19:08:57.941Z,98829.81
2022-08-26T19:11:31.683Z,98832.09
2022-08-26T19:14:01.374Z,98835.81
2022-08-26T19:16:30.567Z,98830.38
2022-08-26T19:19:01.848Z,98832.47
2022-08-26T19:21:31.010Z,98826.88
2022-08-26T19:24:01.034Z,98829.50
2022-08-26T19:26:29.962Z,98835.91
2022-08-26T19:28:58.339Z,98833.03
2022-08-26T19:31:26.596Z,98837.88
2022-08-26T19:33:56.677Z,98839.63
2022-08-26T19:36:27.771Z,98838.56
2022-08-26T19:38:56.775Z,98846.28
2022-08-26T19:41:37.401Z,98841.97
2022-08-26T19:44:09.198Z,98846.03
2022-08-26T19:49:07.229Z,98843.25
2022-08-26T19:51:37.910Z,98842.31
2022-08-26T19:54:06.335Z,98841.69
2022-08-26T19:56:34.946Z,98846.66
2022-08-26T19:59:03.223Z,98847.09
2022-08-26T20:01:31.881Z,98851.94
2022-08-26T20:03:59.997Z,98859.19
2022-08-26T20:06:28.162Z,98864.56
2022-08-26T20:08:58.233Z,98858.72
2022-08-26T20:11:26.678Z,98861.50
2022-08-26T20:13:55.532Z,98867.06
2022-08-26T20:16:23.807Z,98869.06
2022-08-26T20:19:09.799Z,98870.00
2022-08-26T20:21:40.861Z,98870.00
2022-08-26T20:24:16.379Z,98873.56
2022-08-26T20:26:46.587Z,98881.84
2022-08-26T20:29:16.857Z,98893.22
2022-08-26T20:31:45.599Z,98891.53
2022-08-26T20:34:14.554Z,98894.31
2022-08-26T20:36:44.006Z,98887.69
2022-08-26T20:39:13.820Z,98898.00
2022-08-26T20:41:42.359Z,98894.31
2022-08-26T20:44:10.695Z,98882.59
2022-08-26T20:46:38.942Z,98886.75
2022-08-26T20:49:07.886Z,98884.91
2022-08-26T20:51:37.155Z,98889.22
2022-08-26T20:54:06.338Z,98886.13
2022-08-26T20:56:37.057Z,98883.69
2022-08-26T20:59:06.934Z,98883.38
2022-08-26T21:01:37.511Z,98896.13
2022-08-26T21:04:13.965Z,98882.88
2022-08-26T21:07:00.890Z,98884.41
2022-08-26T21:09:29.087Z,98884.56
2022-08-26T21:12:00.477Z,98873.16
2022-08-26T21:14:29.816Z,98877.94
2022-08-26T21:16:58.327Z,98869.50
2022-08-26T21:19:26.801Z,98870.44
2022-08-26T21:21:54.973Z,98866.44
2022-08-26T21:24:23.082Z,98873.53
2022-08-26T21:26:51.241Z,98873.81
2022-08-26T21:29:22.100Z,98868.28
2022-08-26T21:31:50.463Z,98865.34
2022-08-26T21:34:19.802Z,98865.78
2022-08-26T21:36:49.387Z,98864.88
2022-08-26T21:39:17.686Z,98864.88
2022-08-26T21:41:47.258Z,98872.41
2022-08-26T21:44:16.863Z,98862.56
2022-08-26T21:46:47.302Z,98871.00
2022-08-26T21:49:17.505Z,98865.75
2022-08-26T21:51:47.842Z,98871.69
2022-08-26T21:54:18.221Z,98865.69
2022-08-26T21:56:47.718Z,98866.44
2022-08-26T21:59:17.680Z,98861.97
2022-08-26T22:01:47.831Z,98863.06
2022-08-26T22:04:17.085Z,98864.41
2022-08-26T22:06:47.298Z,98868.25
2022-08-26T22:09:17.075Z,98874.34
2022-08-26T22:11:45.924Z,98872.31
2022-08-26T22:14:14.541Z,98875.81
2022-08-26T22:16:50.281Z,98880.84
2022-08-26T22:19:21.195Z,98879.00
2022-08-26T22:21:53.050Z,98876.22
2022-08-26T22:24:23.831Z,98878.53
2022-08-26T22:26:52.440Z,98877.44
2022-08-26T22:29:20.986Z,98877.91
2022-08-26T22:31:49.127Z,98882.06
2022-08-26T22:34:19.636Z,98881.88
2022-08-26T22:36:50.705Z,98882.91
2022-08-26T22:39:21.244Z,98885.78
2022-08-26T22:41:49.683Z,98877.44
2022-08-26T22:44:19.396Z,98882.91
2022-08-26T22:46:49.053Z,98879.19
2022-08-26T22:49:18.353Z,98886.03
2022-08-26T22:51:48.469Z,98882.66
2022-08-26T22:54:17.435Z,98885.91
2022-08-26T22:56:46.177Z,98881.28
2022-08-26T22:59:16.291Z,98881.28
2022-08-26T23:01:46.893Z,98892.13
2022-08-26T23:04:15.954Z,98878.09
2022-08-26T23:06:47.573Z,98885.28
2022-08-26T23:09:19.396Z,98879.91
2022-08-26T23:11:48.742Z,98883.31
2022-08-26T23:14:17.336Z,98888.84
2022-08-26T23:16:45.977Z,98880.13
2022-08-26T23:19:16.091Z,98884.22
2022-08-26T23:21:44.543Z,98883.47
2022-08-26T23:24:13.389Z,98892.31
2022-08-26T23:26:43.152Z,98883.81
2022-08-26T23:29:12.695Z,98889.25
2022-08-26T23:31:43.068Z,98893.75
2022-08-26T23:34:29.436Z,98889.47
2022-08-26T23:36:59.049Z,98890.25
2022-08-26T23:39:28.229Z,98888.38
2022-08-26T23:41:58.198Z,98889.13
2022-08-26T23:44:26.809Z,98888.16
2022-08-26T23:46:55.165Z,98893.25
2022-08-26T23:49:23.663Z,98894.09
2022-08-26T23:52:09.421Z,98888.59
2022-08-26T23:54:38.655Z,98891.03
2022-08-26T23:57:09.446Z,98881.88
2022-08-26T23:59:39.181Z,98881.53
